< < Back
Terminal Aerodrome Forecast


Current Version              Previous Versions:   1  2  3  4  5  6  7  8  9  

Terminal Aerodrome Forecast

739
FTUS42 KGSP 292101 AAB
TAFAVL
TAF AMD
KAVL 292101Z 2921/3018 34012G20KT P6SM SCT018 BKN060
      TEMPO 2921/2924 BKN018
     FM300000 34008KT P6SM SCT200=



Latest METAR

451
SAUS70 KWBC 301200 RRT
MTRAVL
METAR KAVL 301154Z 01004KT 10SM CLR 05/02 A3009 RMK AO2 SLP184 70001
T00500022 10083 20050 51008


USA.gov is the U.S. government's official web portal to all federal, state and local government web resources and services.